Intercession City, Florida
Current Conditions -  °F | °C
As of 3:50 PM on Saturday 25 Oct 2014 (Local Time) from KISM Reporting Station
Clear Clear  
Wind Chill: 79°   Ceiling: Unl
Heat Index: 79°   Visibility: 10mi
Dew Point: 54°   Wind: 6mph
Humidity: 42%   Direction: 340°NNW
Pressure: 29.94"   Gusts: NA
Location:  28.26°N, 81.51°W
Report Text: KISM 251950Z 34005KT 10SM SKC 26/12 A2994
Loading
Personal Weather Stations






























Interactive Weather Map New forecast layout! Learn more

10-Day Weather Forecast

Advertisements
Track Severe Weather on mobile